Time;durP1;ratioP1;P1;durP2;ratioP2;P2;SDS_P1;SDS_P2;PMS_P1;PMS_P2;Temp;Humidity;BMP_temperature;BMP_pressure;BME280_temperature;BME280_humidity;BME280_pressure;Samples;Min_cycle;Max_cycle;Signal;HPM_P1;HPM_P2
2021/03/06 00:01:04;;;;;;;11.40;6.30;;;;;;;;;;10534675;28;20242;-73
2021/03/06 00:06:07;;;;;;;13.53;6.67;;;;;;;;;;10533992;28;20260;-76
2021/03/06 00:11:08;;;;;;;11.13;6.13;;;;;;;;;;10522937;28;20294;-74
2021/03/06 00:16:10;;;;;;;12.70;6.73;;;;;;;;;;10535223;28;20544;-78
2021/03/06 00:21:13;;;;;;;11.73;6.53;;;;;;;;;;10540632;28;20298;-73
2021/03/06 00:26:21;;;;;;;10.73;5.70;;;;;;;;;;10529025;28;20214;-74
2021/03/06 00:31:23;;;;;;;12.57;6.63;;;;;;;;;;10550299;28;20222;-74
2021/03/06 00:36:25;;;;;;;10.80;6.27;;;;;;;;;;10538702;28;20212;-77
2021/03/06 00:41:27;;;;;;;11.73;6.30;;;;;;;;;;10535716;28;20221;-73
2021/03/06 00:46:29;;;;;;;10.83;6.37;;;;;;;;;;10556393;27;20577;-74
2021/03/06 00:51:33;;;;;;;10.70;5.83;;;;;;;;;;10514859;28;20273;-74
2021/03/06 00:56:41;;;;;;;10.83;5.13;;;;;;;;;;10551810;28;20199;-72
2021/03/06 01:01:43;;;;;;;10.17;5.13;;;;;;;;;;10522539;28;20235;-77
2021/03/06 01:06:46;;;;;;;10.07;5.33;;;;;;;;;;10534175;28;20294;-73
2021/03/06 01:11:47;;;;;;;9.83;4.63;;;;;;;;;;10525800;28;20594;-73
2021/03/06 01:16:49;;;;;;;11.03;5.30;;;;;;;;;;10520420;28;20253;-73
2021/03/06 01:21:52;;;;;;;10.07;5.73;;;;;;;;;;10538989;28;20292;-76
2021/03/06 01:27:08;;;;;;;9.00;4.60;;;;;;;;;;10509196;28;20658;-74
2021/03/06 01:32:09;;;;;;;10.00;5.03;;;;;;;;;;10515164;28;20643;-75
2021/03/06 01:37:12;;;;;;;9.33;4.93;;;;;;;;;;10551218;28;20187;-74
2021/03/06 01:42:14;;;;;;;11.00;5.77;;;;;;;;;;10534494;28;20628;-74
2021/03/06 01:47:15;;;;;;;10.20;5.20;;;;;;;;;;10534454;28;20265;-73
2021/03/06 01:52:18;;;;;;;11.10;5.93;;;;;;;;;;10545002;28;20217;-74
2021/03/06 01:57:28;;;;;;;9.33;4.90;;;;;;;;;;10528588;28;20276;-74
2021/03/06 02:02:30;;;;;;;10.47;5.27;;;;;;;;;;10543556;28;20674;-76
2021/03/06 02:07:34;;;;;;;9.90;5.43;;;;;;;;;;10525410;28;20247;-75
2021/03/06 02:12:39;;;;;;;10.77;5.60;;;;;;;;;;10536722;28;20619;-74
2021/03/06 02:17:44;;;;;;;10.03;5.57;;;;;;;;;;10522174;28;20226;-73
2021/03/06 02:23:04;;;;;;;10.50;5.57;;;;;;;;;;10533487;28;20202;-75
2021/03/06 02:28:09;;;;;;;10.80;5.93;;;;;;;;;;10527516;28;20621;-75
2021/03/06 02:33:12;;;;;;;11.37;5.90;;;;;;;;;;10541740;28;20203;-74
2021/03/06 02:38:15;;;;;;;12.13;5.90;;;;;;;;;;10549722;28;20560;-73
2021/03/06 02:43:17;;;;;;;13.37;6.93;;;;;;;;;;10517496;28;20202;-74
2021/03/06 02:48:20;;;;;;;13.67;6.60;;;;;;;;;;10538793;28;20625;-75
2021/03/06 02:53:22;;;;;;;12.97;6.33;;;;;;;;;;10539953;28;20204;-73
2021/03/06 02:58:25;;;;;;;11.07;6.27;;;;;;;;;;10524292;28;20265;-75
2021/03/06 03:03:37;;;;;;;13.47;7.03;;;;;;;;;;10536622;28;20339;-74
2021/03/06 03:08:43;;;;;;;14.33;6.70;;;;;;;;;;10543525;28;20264;-74
2021/03/06 03:13:48;;;;;;;12.83;6.63;;;;;;;;;;10536982;28;20227;-73
2021/03/06 03:18:54;;;;;;;12.37;6.57;;;;;;;;;;10531495;28;20248;-74
2021/03/06 03:23:59;;;;;;;13.70;6.93;;;;;;;;;;10533303;28;20806;-75
2021/03/06 03:29:03;;;;;;;12.53;6.67;;;;;;;;;;10513857;28;20238;-79
2021/03/06 03:34:08;;;;;;;12.97;6.70;;;;;;;;;;10537457;28;20325;-74
2021/03/06 03:39:09;;;;;;;12.03;6.10;;;;;;;;;;10509749;28;21556;-74
2021/03/06 03:44:11;;;;;;;14.43;6.50;;;;;;;;;;10526338;28;20471;-74
2021/03/06 03:49:15;;;;;;;10.07;5.70;;;;;;;;;;10526149;28;20216;-77
2021/03/06 03:54:17;;;;;;;11.47;5.90;;;;;;;;;;10540613;28;20608;-75
2021/03/06 03:59:18;;;;;;;11.97;6.33;;;;;;;;;;10534074;28;20288;-75
2021/03/06 04:04:28;;;;;;;13.03;7.00;;;;;;;;;;10536330;28;20183;-76
2021/03/06 04:09:29;;;;;;;13.30;6.57;;;;;;;;;;10539961;28;20397;-74
2021/03/06 04:14:32;;;;;;;13.40;7.10;;;;;;;;;;10539892;28;20544;-74
2021/03/06 04:19:34;;;;;;;12.77;6.93;;;;;;;;;;10537863;28;20291;-75
2021/03/06 04:24:36;;;;;;;13.00;6.77;;;;;;;;;;10516075;28;20286;-75
2021/03/06 04:29:37;;;;;;;15.23;6.87;;;;;;;;;;10539517;28;20251;-75
2021/03/06 04:34:40;;;;;;;14.00;6.77;;;;;;;;;;10520354;28;20631;-75
2021/03/06 04:39:42;;;;;;;14.20;7.77;;;;;;;;;;10528266;28;20213;-74
2021/03/06 04:44:43;;;;;;;14.43;7.03;;;;;;;;;;10509255;28;20192;-75
2021/03/06 04:49:46;;;;;;;13.30;6.80;;;;;;;;;;10518605;28;20303;-76
2021/03/06 04:54:47;;;;;;;15.17;6.77;;;;;;;;;;10525389;28;20669;-74
2021/03/06 04:59:49;;;;;;;12.63;6.60;;;;;;;;;;10499587;28;20220;-75
2021/03/06 05:04:51;;;;;;;13.33;6.73;;;;;;;;;;10535870;28;20185;-75
2021/03/06 05:09:53;;;;;;;8.57;4.10;;;;;;;;;;10544821;28;20310;-75
2021/03/06 05:14:54;;;;;;;13.07;6.40;;;;;;;;;;10554175;27;20369;-78
2021/03/06 05:19:57;;;;;;;14.07;7.00;;;;;;;;;;10546354;28;20294;-74
2021/03/06 05:24:58;;;;;;;15.87;6.87;;;;;;;;;;10537044;28;20195;-74
2021/03/06 05:30:05;;;;;;;13.33;6.73;;;;;;;;;;10514637;28;20284;-75
2021/03/06 05:35:08;;;;;;;14.93;7.10;;;;;;;;;;10514092;28;20223;-74
2021/03/06 05:40:10;;;;;;;13.03;5.90;;;;;;;;;;10542023;28;20273;-75
2021/03/06 05:45:12;;;;;;;11.80;6.13;;;;;;;;;;10536675;28;20200;-75
2021/03/06 05:50:15;;;;;;;13.03;5.73;;;;;;;;;;10541556;28;20637;-74
2021/03/06 05:55:18;;;;;;;11.13;5.50;;;;;;;;;;10540720;28;20203;-74
2021/03/06 06:00:35;;;;;;;10.67;5.63;;;;;;;;;;10536224;28;20219;-75
2021/03/06 06:05:37;;;;;;;12.03;5.60;;;;;;;;;;10529165;28;20204;-75
2021/03/06 06:10:39;;;;;;;13.13;6.63;;;;;;;;;;10523255;28;20678;-75
2021/03/06 06:15:41;;;;;;;11.13;5.13;;;;;;;;;;10521288;28;20210;-78
2021/03/06 06:20:43;;;;;;;8.93;4.50;;;;;;;;;;10538289;28;20215;-75
2021/03/06 06:25:46;;;;;;;8.97;4.47;;;;;;;;;;10522253;28;20233;-76
2021/03/06 06:31:08;;;;;;;8.20;4.30;;;;;;;;;;10507958;28;20243;-77
2021/03/06 06:36:29;;;;;;;8.47;4.23;;;;;;;;;;10536071;28;20227;-75
2021/03/06 06:41:50;;;;;;;8.40;4.20;;;;;;;;;;10507178;28;20216;-80
2021/03/06 06:46:52;;;;;;;8.07;4.10;;;;;;;;;;10537827;28;20202;-74
2021/03/06 06:52:00;;;;;;;8.30;4.23;;;;;;;;;;10518173;28;20268;-74
2021/03/06 06:57:08;;;;;;;9.13;4.20;;;;;;;;;;10523792;28;20198;-73
2021/03/06 07:02:10;;;;;;;7.43;4.07;;;;;;;;;;10536616;28;20211;-77
2021/03/06 07:07:13;;;;;;;7.67;3.97;;;;;;;;;;10533711;28;20235;-74
2021/03/06 07:12:15;;;;;;;6.97;3.77;;;;;;;;;;10520940;28;20196;-75
2021/03/06 07:17:17;;;;;;;6.33;3.40;;;;;;;;;;10541310;28;20634;-77
2021/03/06 07:22:27;;;;;;;8.10;4.00;;;;;;;;;;10558744;28;20195;-75
2021/03/06 07:27:28;;;;;;;7.80;3.60;;;;;;;;;;10533353;28;20301;-74
2021/03/06 07:32:32;;;;;;;6.77;3.80;;;;;;;;;;10527112;28;20679;-75
2021/03/06 07:37:35;;;;;;;8.57;3.20;;;;;;;;;;10541008;28;20575;-72
2021/03/06 07:42:40;;;;;;;7.17;3.70;;;;;;;;;;10506123;28;20625;-78
2021/03/06 07:47:43;;;;;;;6.40;3.20;;;;;;;;;;10533916;28;20223;-75
2021/03/06 07:52:47;;;;;;;6.87;3.40;;;;;;;;;;10540274;28;20231;-75
2021/03/06 07:58:03;;;;;;;7.73;3.77;;;;;;;;;;10528893;28;20208;-74
2021/03/06 08:03:20;;;;;;;6.80;3.70;;;;;;;;;;10511956;28;20494;-75
2021/03/06 08:08:40;;;;;;;5.27;2.90;;;;;;;;;;10517539;28;20654;-75
2021/03/06 08:13:46;;;;;;;11.90;5.07;;;;;;;;;;10533875;28;20303;-74
2021/03/06 08:18:48;;;;;;;6.43;3.40;;;;;;;;;;10521056;28;20246;-76
2021/03/06 08:23:50;;;;;;;5.83;3.30;;;;;;;;;;10532907;28;20656;-77
2021/03/06 08:28:55;;;;;;;7.53;3.33;;;;;;;;;;10511916;28;20238;-74
2021/03/06 08:34:23;;;;;;;5.78;3.10;;;;;;;;;;10537618;28;20632;-75
2021/03/06 08:39:25;;;;;;;5.85;3.20;;;;;;;;;;10530263;28;20219;-75
2021/03/06 08:44:27;;;;;;;4.97;3.03;;;;;;;;;;10537051;28;20272;-73
2021/03/06 08:49:31;;;;;;;6.07;3.08;;;;;;;;;;10531654;28;20220;-76
2021/03/06 08:54:37;;;;;;;4.75;2.78;;;;;;;;;;10533242;28;20196;-75
2021/03/06 08:59:39;;;;;;;5.20;2.97;;;;;;;;;;10512090;28;20299;-77
2021/03/06 09:04:41;;;;;;;5.85;3.40;;;;;;;;;;10518336;28;20234;-74
2021/03/06 09:09:43;;;;;;;6.55;3.30;;;;;;;;;;10545319;28;20239;-75
2021/03/06 09:14:46;;;;;;;6.70;3.20;;;;;;;;;;10515998;28;20273;-74
2021/03/06 09:19:47;;;;;;;5.32;3.38;;;;;;;;;;10537591;28;20264;-74
2021/03/06 09:24:50;;;;;;;5.47;3.55;;;;;;;;;;10536079;28;20196;-74
2021/03/06 09:29:52;;;;;;;5.43;3.15;;;;;;;;;;10535220;28;20227;-74
2021/03/06 09:34:54;;;;;;;6.15;3.50;;;;;;;;;;10533291;28;20291;-74
2021/03/06 09:39:55;;;;;;;6.18;3.63;;;;;;;;;;10529894;28;20698;-75
2021/03/06 09:44:58;;;;;;;5.50;3.50;;;;;;;;;;10543361;28;20199;-75
2021/03/06 09:50:00;;;;;;;6.65;4.00;;;;;;;;;;10561007;28;20284;-71
2021/03/06 09:55:03;;;;;;;5.82;3.63;;;;;;;;;;10532331;28;20223;-74
2021/03/06 10:00:07;;;;;;;6.93;3.88;;;;;;;;;;10530289;28;20208;-75
2021/03/06 10:05:09;;;;;;;6.70;4.00;;;;;;;;;;10541374;28;20264;-75
2021/03/06 10:10:11;;;;;;;6.70;4.30;;;;;;;;;;10521792;28;20223;-72
2021/03/06 10:15:16;;;;;;;6.80;4.20;;;;;;;;;;10535205;28;20200;-75
2021/03/06 10:20:26;;;;;;;6.30;4.30;;;;;;;;;;10513713;28;20212;-74
2021/03/06 10:25:28;;;;;;;6.75;4.20;;;;;;;;;;10524434;28;20196;-75
2021/03/06 10:30:31;;;;;;;6.20;4.25;;;;;;;;;;10529833;28;20255;-74
2021/03/06 10:35:37;;;;;;;6.53;4.13;;;;;;;;;;10533860;28;20663;-74
2021/03/06 10:40:40;;;;;;;5.95;4.32;;;;;;;;;;10540909;28;20207;-77
2021/03/06 10:45:43;;;;;;;6.30;3.97;;;;;;;;;;10539020;28;20297;-75
2021/03/06 10:50:44;;;;;;;6.57;3.80;;;;;;;;;;10545737;28;20257;-75
2021/03/06 10:55:47;;;;;;;6.78;4.60;;;;;;;;;;10531651;28;20269;-76
2021/03/06 11:01:00;;;;;;;6.43;4.20;;;;;;;;;;10520240;28;20208;-77
2021/03/06 11:06:04;;;;;;;6.03;4.00;;;;;;;;;;10528599;28;20199;-74
2021/03/06 11:11:07;;;;;;;7.40;4.80;;;;;;;;;;10523716;28;20258;-73
2021/03/06 11:16:11;;;;;;;6.68;4.75;;;;;;;;;;10521984;28;20280;-74
2021/03/06 11:21:14;;;;;;;6.53;4.47;;;;;;;;;;10534901;28;20211;-75
2021/03/06 11:26:15;;;;;;;6.05;4.40;;;;;;;;;;10529271;28;20188;-72
2021/03/06 11:31:18;;;;;;;5.72;4.22;;;;;;;;;;10532895;28;20299;-76
2021/03/06 11:36:22;;;;;;;6.30;4.22;;;;;;;;;;10513430;28;20639;-74
2021/03/06 11:41:23;;;;;;;6.13;4.47;;;;;;;;;;10514084;28;20653;-76
2021/03/06 11:46:26;;;;;;;6.63;4.28;;;;;;;;;;10525993;28;20598;-74
2021/03/06 11:51:28;;;;;;;6.95;4.38;;;;;;;;;;10536637;28;20215;-74
2021/03/06 11:56:29;;;;;;;6.38;4.30;;;;;;;;;;10533907;28;20711;-75
2021/03/06 12:01:33;;;;;;;6.68;4.32;;;;;;;;;;10541085;28;20211;-75
2021/03/06 12:06:35;;;;;;;6.05;4.40;;;;;;;;;;10527535;28;20192;-74
2021/03/06 12:11:36;;;;;;;6.18;4.53;;;;;;;;;;10532429;28;20218;-74
2021/03/06 12:16:39;;;;;;;6.80;4.30;;;;;;;;;;10535675;28;20195;-74
2021/03/06 12:21:41;;;;;;;6.13;3.88;;;;;;;;;;10532487;28;20632;-73
2021/03/06 12:26:42;;;;;;;6.45;4.03;;;;;;;;;;10554589;27;20203;-72
2021/03/06 12:31:45;;;;;;;5.95;3.97;;;;;;;;;;10540130;28;20305;-75
2021/03/06 12:36:48;;;;;;;6.90;4.30;;;;;;;;;;10552567;28;20191;-74
2021/03/06 12:41:50;;;;;;;5.55;3.95;;;;;;;;;;10516762;28;20669;-74
2021/03/06 12:46:53;;;;;;;6.35;4.20;;;;;;;;;;10540350;28;20654;-74
2021/03/06 12:51:54;;;;;;;6.78;4.15;;;;;;;;;;10538060;28;20562;-79
2021/03/06 12:56:56;;;;;;;6.70;4.13;;;;;;;;;;10533347;28;20673;-74
2021/03/06 13:01:58;;;;;;;6.45;4.20;;;;;;;;;;10536968;28;20682;-71
2021/03/06 13:07:03;;;;;;;7.05;4.03;;;;;;;;;;10547393;28;20203;-74
2021/03/06 13:12:05;;;;;;;6.95;4.20;;;;;;;;;;10535127;28;20242;-74
2021/03/06 13:17:07;;;;;;;5.70;3.88;;;;;;;;;;10532959;28;20199;-75
2021/03/06 13:22:09;;;;;;;6.22;3.90;;;;;;;;;;10537023;28;20240;-76
2021/03/06 13:27:11;;;;;;;5.63;3.50;;;;;;;;;;10530774;28;20198;-76
2021/03/06 13:32:13;;;;;;;6.07;3.80;;;;;;;;;;10539804;28;20230;-74
2021/03/06 13:37:16;;;;;;;6.80;3.80;;;;;;;;;;10533230;28;20191;-74
2021/03/06 13:42:17;;;;;;;6.70;3.97;;;;;;;;;;10539227;28;20699;-73
2021/03/06 13:47:20;;;;;;;7.60;4.50;;;;;;;;;;10507592;28;20197;-75
2021/03/06 13:52:21;;;;;;;5.63;3.83;;;;;;;;;;10536252;28;20212;-75
2021/03/06 13:57:23;;;;;;;7.07;3.77;;;;;;;;;;10509712;28;20690;-76
2021/03/06 14:02:26;;;;;;;7.03;3.87;;;;;;;;;;10530119;28;20195;-74
2021/03/06 14:07:28;;;;;;;6.47;3.90;;;;;;;;;;10536252;28;20229;-75
2021/03/06 14:12:29;;;;;;;6.40;3.90;;;;;;;;;;10536804;28;20297;-74
2021/03/06 14:17:32;;;;;;;7.10;4.00;;;;;;;;;;10538600;28;20215;-73
2021/03/06 14:22:34;;;;;;;6.37;3.90;;;;;;;;;;10506925;28;20195;-74
2021/03/06 14:27:36;;;;;;;6.37;3.83;;;;;;;;;;10510215;28;20216;-74
2021/03/06 14:32:40;;;;;;;7.17;3.60;;;;;;;;;;10525537;28;20223;-75
2021/03/06 14:37:42;;;;;;;7.30;3.80;;;;;;;;;;10539528;28;20242;-75
2021/03/06 14:42:44;;;;;;;6.97;3.70;;;;;;;;;;10523527;28;20206;-74
2021/03/06 14:47:46;;;;;;;7.30;4.00;;;;;;;;;;10531066;28;20622;-74
2021/03/06 14:52:48;;;;;;;6.77;3.70;;;;;;;;;;10523034;28;20200;-73
2021/03/06 14:57:50;;;;;;;7.70;4.30;;;;;;;;;;10521579;28;20219;-72
2021/03/06 15:02:52;;;;;;;8.40;4.10;;;;;;;;;;10525278;28;20223;-73
2021/03/06 15:07:54;;;;;;;6.83;3.60;;;;;;;;;;10538019;28;20222;-74
2021/03/06 15:12:56;;;;;;;6.60;3.80;;;;;;;;;;10543324;28;20589;-77
2021/03/06 15:17:59;;;;;;;7.07;3.37;;;;;;;;;;10515305;28;20215;-75
2021/03/06 15:23:03;;;;;;;6.40;3.50;;;;;;;;;;10536755;28;20257;-77
2021/03/06 15:28:05;;;;;;;5.47;3.00;;;;;;;;;;10521165;28;20220;-74
2021/03/06 15:33:08;;;;;;;8.03;3.67;;;;;;;;;;10523030;28;20286;-75
2021/03/06 15:38:10;;;;;;;6.50;3.30;;;;;;;;;;10530141;28;20655;-74
2021/03/06 15:43:12;;;;;;;7.07;2.93;;;;;;;;;;10528788;28;20211;-75
2021/03/06 15:48:17;;;;;;;5.53;3.00;;;;;;;;;;10521272;28;20621;-75
2021/03/06 15:53:19;;;;;;;6.60;3.00;;;;;;;;;;10532551;28;20194;-80
2021/03/06 15:58:20;;;;;;;6.10;2.83;;;;;;;;;;10538039;28;20211;-74
2021/03/06 16:03:23;;;;;;;7.53;3.13;;;;;;;;;;10505479;28;20264;-73
2021/03/06 16:08:31;;;;;;;5.10;2.60;;;;;;;;;;10514825;28;20212;-70
2021/03/06 16:13:33;;;;;;;5.80;2.77;;;;;;;;;;10520398;28;20202;-75
2021/03/06 16:18:35;;;;;;;4.83;2.60;;;;;;;;;;10510118;28;20211;-72
2021/03/06 16:23:37;;;;;;;6.57;2.60;;;;;;;;;;10498896;28;20222;-73
2021/03/06 16:28:39;;;;;;;4.50;2.30;;;;;;;;;;10536044;28;20238;-76
2021/03/06 16:33:41;;;;;;;7.53;2.43;;;;;;;;;;10531470;28;20590;-72
2021/03/06 16:38:43;;;;;;;5.93;2.57;;;;;;;;;;10500253;28;20299;-74
2021/03/06 16:43:45;;;;;;;5.17;2.53;;;;;;;;;;10517728;28;20649;-79
2021/03/06 16:48:47;;;;;;;6.10;2.67;;;;;;;;;;10517487;28;20802;-75
2021/03/06 16:53:49;;;;;;;6.67;2.67;;;;;;;;;;10512200;28;20682;-75
2021/03/06 16:58:51;;;;;;;5.07;2.50;;;;;;;;;;10529880;28;20206;-78
2021/03/06 17:03:53;;;;;;;4.73;2.20;;;;;;;;;;10525610;28;20265;-79
2021/03/06 17:08:55;;;;;;;5.73;2.50;;;;;;;;;;10526565;28;20579;-73
2021/03/06 17:13:57;;;;;;;4.93;2.37;;;;;;;;;;10524644;28;20516;-74
2021/03/06 17:18:59;;;;;;;4.60;2.33;;;;;;;;;;10505314;28;20204;-72
2021/03/06 17:24:03;;;;;;;4.77;2.40;;;;;;;;;;10518110;28;20199;-76
2021/03/06 17:29:05;;;;;;;7.90;2.77;;;;;;;;;;10503560;28;20282;-74
2021/03/06 17:34:07;;;;;;;5.90;2.70;;;;;;;;;;10501749;28;20207;-75
2021/03/06 17:39:09;;;;;;;6.67;2.90;;;;;;;;;;10535675;28;20295;-76
2021/03/06 17:44:10;;;;;;;6.70;3.10;;;;;;;;;;10520178;28;20991;-76
2021/03/06 17:49:14;;;;;;;6.83;2.80;;;;;;;;;;10533815;28;20222;-75
2021/03/06 17:54:16;;;;;;;5.33;2.63;;;;;;;;;;10535311;28;20247;-75
2021/03/06 17:59:18;;;;;;;6.37;3.17;;;;;;;;;;10531414;28;20289;-75
2021/03/06 18:04:20;;;;;;;6.10;2.77;;;;;;;;;;10535622;28;20203;-74
2021/03/06 18:09:29;;;;;;;7.50;3.27;;;;;;;;;;10537084;28;20590;-76
2021/03/06 18:14:32;;;;;;;7.90;3.40;;;;;;;;;;10531395;28;20652;-74
2021/03/06 18:19:35;;;;;;;6.90;3.20;;;;;;;;;;10539228;28;20239;-76
2021/03/06 18:24:37;;;;;;;8.30;3.50;;;;;;;;;;10540025;28;20211;-74
2021/03/06 18:29:40;;;;;;;7.00;3.20;;;;;;;;;;10528471;28;20223;-76
2021/03/06 18:34:43;;;;;;;7.13;3.20;;;;;;;;;;10553080;28;20238;-80
2021/03/06 18:39:52;;;;;;;7.13;3.37;;;;;;;;;;10541041;28;20713;-76
2021/03/06 18:45:07;;;;;;;8.23;3.50;;;;;;;;;;10531799;28;20210;-75
2021/03/06 18:50:10;;;;;;;7.10;3.30;;;;;;;;;;10540793;28;20236;-76
2021/03/06 18:55:12;;;;;;;6.77;3.30;;;;;;;;;;10525401;28;20217;-75
2021/03/06 19:00:16;;;;;;;8.27;3.60;;;;;;;;;;10503854;28;20215;-75
2021/03/06 19:05:19;;;;;;;8.70;4.30;;;;;;;;;;10521681;28;20271;-75
2021/03/06 19:10:22;;;;;;;9.60;4.27;;;;;;;;;;10542816;28;20239;-76
2021/03/06 19:15:23;;;;;;;9.77;4.37;;;;;;;;;;10517004;28;20230;-78
2021/03/06 19:20:26;;;;;;;8.67;4.27;;;;;;;;;;10520495;28;20211;-76
2021/03/06 19:25:28;;;;;;;8.53;4.40;;;;;;;;;;10519254;28;20202;-76
2021/03/06 19:30:29;;;;;;;10.37;4.73;;;;;;;;;;10535700;28;20211;-76
2021/03/06 19:35:32;;;;;;;8.20;4.17;;;;;;;;;;10536761;28;20207;-76
2021/03/06 19:40:40;;;;;;;8.03;4.13;;;;;;;;;;10509344;28;20216;-75
2021/03/06 19:45:42;;;;;;;9.00;4.07;;;;;;;;;;10524563;28;20214;-76
2021/03/06 19:50:45;;;;;;;9.43;4.77;;;;;;;;;;10513339;28;20208;-76
2021/03/06 19:55:48;;;;;;;10.13;4.33;;;;;;;;;;10528650;28;20745;-75
2021/03/06 20:00:51;;;;;;;10.30;4.50;;;;;;;;;;10527205;28;20211;-78
2021/03/06 20:05:54;;;;;;;9.00;4.20;;;;;;;;;;10528029;28;20195;-76
2021/03/06 20:10:58;;;;;;;9.07;4.47;;;;;;;;;;10506093;28;20573;-76
2021/03/06 20:16:00;;;;;;;9.40;4.23;;;;;;;;;;10524888;28;20198;-75
2021/03/06 20:21:09;;;;;;;12.53;5.33;;;;;;;;;;10522893;28;20242;-75
2021/03/06 20:26:11;;;;;;;11.93;5.63;;;;;;;;;;10532129;28;20212;-76
2021/03/06 20:31:12;;;;;;;9.83;4.30;;;;;;;;;;10539098;28;20218;-76
2021/03/06 20:36:15;;;;;;;10.30;4.83;;;;;;;;;;10548603;28;20200;-75
2021/03/06 20:41:19;;;;;;;9.30;5.03;;;;;;;;;;10526765;28;20245;-74
2021/03/06 20:46:20;;;;;;;10.17;4.70;;;;;;;;;;10548047;28;21524;-77
2021/03/06 20:51:23;;;;;;;8.27;4.40;;;;;;;;;;10532766;28;20539;-79
2021/03/06 20:56:24;;;;;;;8.40;3.77;;;;;;;;;;10569299;27;20219;-77
2021/03/06 21:01:29;;;;;;;11.13;5.80;;;;;;;;;;10540997;28;20266;-74
2021/03/06 21:06:32;;;;;;;8.97;4.03;;;;;;;;;;10545327;28;20247;-77
2021/03/06 21:11:41;;;;;;;9.10;4.00;;;;;;;;;;10532504;28;20226;-75
2021/03/06 21:16:43;;;;;;;7.13;3.17;;;;;;;;;;10536412;28;20199;-77
2021/03/06 21:21:46;;;;;;;9.00;4.17;;;;;;;;;;10520357;28;20298;-75
2021/03/06 21:26:47;;;;;;;8.60;4.20;;;;;;;;;;10540763;28;20241;-75
2021/03/06 21:31:49;;;;;;;8.17;3.80;;;;;;;;;;10538318;28;20219;-75
2021/03/06 21:36:52;;;;;;;9.20;3.60;;;;;;;;;;10541711;28;20215;-79
2021/03/06 21:42:05;;;;;;;10.33;4.10;;;;;;;;;;10543378;28;20242;-77
2021/03/06 21:47:06;;;;;;;7.90;3.73;;;;;;;;;;10545344;28;20183;-73
2021/03/06 21:52:09;;;;;;;9.00;3.90;;;;;;;;;;10522031;28;20390;-79
2021/03/06 21:57:11;;;;;;;9.20;3.97;;;;;;;;;;10530450;28;20188;-74
2021/03/06 22:02:12;;;;;;;8.20;4.00;;;;;;;;;;10569663;28;20223;-75
2021/03/06 22:07:15;;;;;;;10.23;5.43;;;;;;;;;;10566465;28;20268;-73
2021/03/06 22:12:28;;;;;;;8.67;3.77;;;;;;;;;;10549691;28;20204;-78
2021/03/06 22:17:29;;;;;;;9.27;4.27;;;;;;;;;;10546983;28;20230;-76
2021/03/06 22:22:32;;;;;;;11.00;4.43;;;;;;;;;;10556504;27;20259;-76
2021/03/06 22:27:34;;;;;;;9.00;4.20;;;;;;;;;;10527697;28;20247;-75
2021/03/06 22:32:36;;;;;;;10.50;4.67;;;;;;;;;;10516333;28;20273;-77
2021/03/06 22:37:39;;;;;;;10.50;4.60;;;;;;;;;;10536916;28;20299;-77
2021/03/06 22:42:49;;;;;;;9.13;4.47;;;;;;;;;;10528965;28;20203;-75
2021/03/06 22:47:51;;;;;;;8.87;4.37;;;;;;;;;;10548467;27;20211;-74
2021/03/06 22:52:54;;;;;;;9.00;4.50;;;;;;;;;;10507483;28;20227;-76
2021/03/06 22:57:55;;;;;;;9.47;4.50;;;;;;;;;;10530472;28;20297;-76
2021/03/06 23:02:58;;;;;;;9.07;4.50;;;;;;;;;;10507357;28;20558;-76
2021/03/06 23:08:03;;;;;;;8.30;4.40;;;;;;;;;;10528238;28;20389;-78
2021/03/06 23:13:10;;;;;;;9.13;4.20;;;;;;;;;;10521530;28;20192;-74
2021/03/06 23:18:12;;;;;;;11.63;4.20;;;;;;;;;;10509468;28;20241;-74
2021/03/06 23:23:15;;;;;;;9.07;4.50;;;;;;;;;;10527142;28;20259;-75
2021/03/06 23:28:16;;;;;;;8.10;4.20;;;;;;;;;;10537840;28;20226;-75
2021/03/06 23:33:19;;;;;;;9.20;4.30;;;;;;;;;;10534876;28;20211;-75
2021/03/06 23:38:22;;;;;;;8.93;4.30;;;;;;;;;;10531884;28;20672;-74
2021/03/06 23:43:32;;;;;;;9.67;4.63;;;;;;;;;;10529173;28;20206;-74
2021/03/06 23:48:43;;;;;;;8.23;4.10;;;;;;;;;;10506153;28;20211;-77
2021/03/06 23:53:45;;;;;;;10.47;4.30;;;;;;;;;;10511571;28;20314;-75
2021/03/06 23:58:47;;;;;;;10.00;4.90;;;;;;;;;;10513965;28;20620;-76
